Airfield :
LOGIN :

Register | Disclaimer

   EN    FR    IT 

 










Legend :    VFR   Marginal VFR   IFR   Intensive IFR   Very Intensive IFR
Visi :
Ceiling :
>= 8 km
>= 3000ft
5 to 8 km
1000 to 3000 ft
1500m to 5 km
500 to 1000 ft
800 to 1500m
200 to 500 ft
< 800m
< 200 ft
Symbols :   Thunderstorms  Fog  Heavy snow  Heavy precipitations  Wind > 20 kt
SIGMETs :     Misc.  Thunderstorms  Icing  Turbulence  Mountain Waves  Volcanic Ashes






- Airport Elevation : 15 ft
- IATA code : FCO


LIRF - Roma Leonardo da Vinci Fiumicino

CURRENT METAR :
  • 061450Z 18005KT 130V210 CAVOK 16/13 Q1021 NOSIG

EXPIRED METARs :
  • 061420Z 18003KT 140V210 CAVOK 17/12 Q1021 NOSIG
  • 061350Z 19003KT 150V210 CAVOK 17/12 Q1022 NOSIG
  • 061320Z 14003KT 100V190 CAVOK 17/11 Q1022 NOSIG
  • 061250Z 12004KT 100V160 CAVOK 16/10 Q1022 NOSIG
  • 061220Z 14003KT 110V180 CAVOK 16/10 Q1022 NOSIG

TAF TAF LIRF
Valid from the 06 at 12:00 until the 07 at 18:00 UTC


061100Z 0612/0718 12010KT 9999 SCT040
TEMPO 0616/0706 4000 SHRA
BECMG 0709/0711 23012KT



MET'MAP, your aeronautical weather chart ! - Copyright ORBIFLY December 2007 - Disclaimer

ORBIFLY MET'MAP TEAM :

Programming & Development : Alexandra Zaïnal
Concept & original design : Baudouin d'Aumeries
Assistance for programming : Marc-Olivier Méhu
Technical & hardware support : Manuel Goepfert

Contact : metmap@orbifly.com




SOURCES & CREDITS :

   NOAA